sensor_id;sensor_type;location;lat;lon;timestamp;pressure;altitude;pressure_sealevel;temperature;humidity
13367;BME280;6752;52.612;13.630;2023-04-21T00:02:08;101387.13;;;8.00;100.00
13367;BME280;6752;52.612;13.630;2023-04-21T00:07:10;101385.95;;;7.98;100.00
13367;BME280;6752;52.612;13.630;2023-04-21T00:12:12;101385.30;;;7.96;100.00
13367;BME280;6752;52.612;13.630;2023-04-21T00:17:15;101376.33;;;7.88;100.00
13367;BME280;6752;52.612;13.630;2023-04-21T00:22:17;101378.84;;;7.90;100.00
13367;BME280;6752;52.612;13.630;2023-04-21T00:27:19;101370.12;;;7.80;100.00
13367;BME280;6752;52.612;13.630;2023-04-21T00:32:22;101375.29;;;7.89;100.00
13367;BME280;6752;52.612;13.630;2023-04-21T00:37:24;101367.92;;;8.23;100.00
13367;BME280;6752;52.612;13.630;2023-04-21T00:42:26;101363.81;;;8.42;100.00
13367;BME280;6752;52.612;13.630;2023-04-21T00:47:29;101365.31;;;8.45;100.00
13367;BME280;6752;52.612;13.630;2023-04-21T00:52:31;101360.20;;;8.53;100.00
13367;BME280;6752;52.612;13.630;2023-04-21T00:57:34;101355.78;;;8.34;100.00
13367;BME280;6752;52.612;13.630;2023-04-21T01:02:36;101357.61;;;8.26;100.00
13367;BME280;6752;52.612;13.630;2023-04-21T01:07:37;101364.80;;;8.01;100.00
13367;BME280;6752;52.612;13.630;2023-04-21T01:12:43;101361.09;;;7.76;100.00
13367;BME280;6752;52.612;13.630;2023-04-21T01:17:45;101365.58;;;7.69;100.00
13367;BME280;6752;52.612;13.630;2023-04-21T01:22:47;101355.03;;;7.81;100.00
13367;BME280;6752;52.612;13.630;2023-04-21T01:27:49;101355.01;;;7.66;100.00
13367;BME280;6752;52.612;13.630;2023-04-21T01:32:51;101357.23;;;7.89;100.00
13367;BME280;6752;52.612;13.630;2023-04-21T01:37:54;101343.94;;;8.27;100.00
13367;BME280;6752;52.612;13.630;2023-04-21T01:42:56;101351.00;;;7.92;100.00
13367;BME280;6752;52.612;13.630;2023-04-21T01:47:59;101340.57;;;8.54;100.00
13367;BME280;6752;52.612;13.630;2023-04-21T01:53:01;101336.10;;;9.07;100.00
13367;BME280;6752;52.612;13.630;2023-04-21T01:58:03;101334.42;;;9.06;100.00
13367;BME280;6752;52.612;13.630;2023-04-21T02:03:06;101341.31;;;9.06;100.00
13367;BME280;6752;52.612;13.630;2023-04-21T02:08:09;101335.43;;;8.73;100.00
13367;BME280;6752;52.612;13.630;2023-04-21T02:13:11;101338.80;;;8.65;100.00
13367;BME280;6752;52.612;13.630;2023-04-21T02:18:14;101329.64;;;8.58;100.00
13367;BME280;6752;52.612;13.630;2023-04-21T02:23:16;101330.47;;;8.41;100.00
13367;BME280;6752;52.612;13.630;2023-04-21T02:28:18;101334.64;;;8.03;100.00
13367;BME280;6752;52.612;13.630;2023-04-21T02:33:21;101330.09;;;7.82;100.00
13367;BME280;6752;52.612;13.630;2023-04-21T02:38:23;101333.81;;;7.59;100.00
13367;BME280;6752;52.612;13.630;2023-04-21T02:43:25;101341.31;;;7.52;100.00
13367;BME280;6752;52.612;13.630;2023-04-21T02:48:28;101330.70;;;7.39;100.00
13367;BME280;6752;52.612;13.630;2023-04-21T02:53:30;101328.55;;;7.31;100.00
13367;BME280;6752;52.612;13.630;2023-04-21T02:58:33;101327.98;;;7.21;100.00
13367;BME280;6752;52.612;13.630;2023-04-21T03:03:35;101322.73;;;7.64;100.00
13367;BME280;6752;52.612;13.630;2023-04-21T03:08:37;101324.39;;;8.17;100.00
13367;BME280;6752;52.612;13.630;2023-04-21T03:13:40;101320.59;;;8.22;100.00
13367;BME280;6752;52.612;13.630;2023-04-21T03:18:42;101313.33;;;8.33;100.00
13367;BME280;6752;52.612;13.630;2023-04-21T03:23:44;101325.88;;;8.41;100.00
13367;BME280;6752;52.612;13.630;2023-04-21T03:28:46;101322.23;;;8.42;100.00
13367;BME280;6752;52.612;13.630;2023-04-21T03:33:49;101321.47;;;8.33;100.00
13367;BME280;6752;52.612;13.630;2023-04-21T03:38:51;101322.62;;;8.16;100.00
13367;BME280;6752;52.612;13.630;2023-04-21T03:43:56;101316.08;;;8.11;100.00
13367;BME280;6752;52.612;13.630;2023-04-21T03:48:58;101321.47;;;7.93;100.00
13367;BME280;6752;52.612;13.630;2023-04-21T03:54:01;101320.45;;;7.87;100.00
13367;BME280;6752;52.612;13.630;2023-04-21T03:59:03;101327.81;;;7.78;100.00
13367;BME280;6752;52.612;13.630;2023-04-21T04:04:05;101329.53;;;7.53;100.00
13367;BME280;6752;52.612;13.630;2023-04-21T04:09:07;101334.11;;;7.52;100.00
13367;BME280;6752;52.612;13.630;2023-04-21T04:14:10;101342.25;;;7.26;100.00
13367;BME280;6752;52.612;13.630;2023-04-21T04:19:12;101341.02;;;7.14;100.00
13367;BME280;6752;52.612;13.630;2023-04-21T04:24:15;101341.84;;;7.03;100.00
13367;BME280;6752;52.612;13.630;2023-04-21T04:29:17;101343.58;;;7.07;100.00
13367;BME280;6752;52.612;13.630;2023-04-21T04:34:19;101336.42;;;7.03;100.00
13367;BME280;6752;52.612;13.630;2023-04-21T04:39:21;101340.35;;;7.12;100.00
13367;BME280;6752;52.612;13.630;2023-04-21T04:44:23;101338.03;;;7.23;100.00
13367;BME280;6752;52.612;13.630;2023-04-21T04:49:26;101346.51;;;7.32;100.00
13367;BME280;6752;52.612;13.630;2023-04-21T04:54:28;101342.06;;;7.54;100.00
13367;BME280;6752;52.612;13.630;2023-04-21T04:59:31;101346.91;;;7.77;100.00
13367;BME280;6752;52.612;13.630;2023-04-21T05:04:33;101344.20;;;8.14;100.00
13367;BME280;6752;52.612;13.630;2023-04-21T05:09:36;101342.00;;;8.72;100.00
13367;BME280;6752;52.612;13.630;2023-04-21T05:14:38;101351.56;;;9.18;100.00
13367;BME280;6752;52.612;13.630;2023-04-21T05:19:40;101346.94;;;9.50;100.00
13367;BME280;6752;52.612;13.630;2023-04-21T05:24:43;101354.67;;;9.78;100.00
13367;BME280;6752;52.612;13.630;2023-04-21T05:29:45;101355.05;;;10.06;100.00
13367;BME280;6752;52.612;13.630;2023-04-21T05:34:47;101360.55;;;10.30;100.00
13367;BME280;6752;52.612;13.630;2023-04-21T05:39:50;101355.00;;;10.58;100.00
13367;BME280;6752;52.612;13.630;2023-04-21T05:44:52;101357.05;;;10.76;100.00
13367;BME280;6752;52.612;13.630;2023-04-21T05:49:55;101352.39;;;10.98;100.00
13367;BME280;6752;52.612;13.630;2023-04-21T05:54:57;101351.06;;;11.21;100.00
13367;BME280;6752;52.612;13.630;2023-04-21T05:59:59;101352.02;;;11.44;100.00
13367;BME280;6752;52.612;13.630;2023-04-21T06:05:02;101347.39;;;11.61;100.00
13367;BME280;6752;52.612;13.630;2023-04-21T06:10:04;101342.21;;;11.95;100.00
13367;BME280;6752;52.612;13.630;2023-04-21T06:15:06;101338.37;;;12.16;100.00
13367;BME280;6752;52.612;13.630;2023-04-21T06:20:09;101329.78;;;12.38;99.88
13367;BME280;6752;52.612;13.630;2023-04-21T06:25:11;101327.48;;;12.73;98.24
13367;BME280;6752;52.612;13.630;2023-04-21T06:30:13;101325.88;;;12.81;94.86
13367;BME280;6752;52.612;13.630;2023-04-21T06:35:16;101328.44;;;13.23;97.48
13367;BME280;6752;52.612;13.630;2023-04-21T06:40:18;101322.46;;;13.45;94.32
13367;BME280;6752;52.612;13.630;2023-04-21T06:45:20;101319.30;;;13.45;88.54
13367;BME280;6752;52.612;13.630;2023-04-21T06:50:23;101322.34;;;14.02;90.35
13367;BME280;6752;52.612;13.630;2023-04-21T06:55:25;101315.20;;;14.34;87.35
13367;BME280;6752;52.612;13.630;2023-04-21T07:00:27;101313.77;;;14.50;82.77
13367;BME280;6752;52.612;13.630;2023-04-21T07:05:30;101317.01;;;14.40;82.95
13367;BME280;6752;52.612;13.630;2023-04-21T07:10:32;101314.19;;;14.80;80.54
13367;BME280;6752;52.612;13.630;2023-04-21T07:15:34;101320.76;;;14.85;78.39
13367;BME280;6752;52.612;13.630;2023-04-21T07:20:37;101313.61;;;14.89;78.58
13367;BME280;6752;52.612;13.630;2023-04-21T07:25:39;101310.75;;;15.44;76.26
13367;BME280;6752;52.612;13.630;2023-04-21T07:30:42;101309.06;;;15.63;75.40
13367;BME280;6752;52.612;13.630;2023-04-21T07:35:44;101310.97;;;15.86;72.33
13367;BME280;6752;52.612;13.630;2023-04-21T07:40:46;101310.54;;;15.92;70.95
13367;BME280;6752;52.612;13.630;2023-04-21T07:45:49;101312.00;;;16.15;70.67
13367;BME280;6752;52.612;13.630;2023-04-21T07:50:51;101302.28;;;16.24;67.85
13367;BME280;6752;52.612;13.630;2023-04-21T07:55:53;101298.82;;;16.42;67.79
13367;BME280;6752;52.612;13.630;2023-04-21T08:00:55;101290.66;;;17.21;65.00
13367;BME280;6752;52.612;13.630;2023-04-21T08:05:58;101296.84;;;17.54;67.72
13367;BME280;6752;52.612;13.630;2023-04-21T08:11:00;101298.48;;;17.77;65.69
13367;BME280;6752;52.612;13.630;2023-04-21T08:16:02;101295.55;;;18.17;66.54
13367;BME280;6752;52.612;13.630;2023-04-21T08:21:05;101294.86;;;17.85;64.59
13367;BME280;6752;52.612;13.630;2023-04-21T08:26:08;101282.48;;;18.42;64.18
13367;BME280;6752;52.612;13.630;2023-04-21T08:31:10;101288.66;;;18.17;61.40
13367;BME280;6752;52.612;13.630;2023-04-21T08:36:12;101281.16;;;17.73;58.92
13367;BME280;6752;52.612;13.630;2023-04-21T08:41:14;101279.82;;;18.72;61.20
13367;BME280;6752;52.612;13.630;2023-04-21T08:46:17;101276.02;;;19.60;61.91
13367;BME280;6752;52.612;13.630;2023-04-21T08:51:22;101263.02;;;19.08;57.18
13367;BME280;6752;52.612;13.630;2023-04-21T08:56:24;101272.95;;;19.75;58.23
13367;BME280;6752;52.612;13.630;2023-04-21T09:01:26;101269.89;;;19.96;56.66
13367;BME280;6752;52.612;13.630;2023-04-21T09:06:38;101270.69;;;20.20;56.98
13367;BME280;6752;52.612;13.630;2023-04-21T09:11:31;101268.73;;;19.47;54.61
13367;BME280;6752;52.612;13.630;2023-04-21T09:16:33;101267.72;;;19.58;55.03
13367;BME280;6752;52.612;13.630;2023-04-21T09:21:35;101263.22;;;19.89;55.08
13367;BME280;6752;52.612;13.630;2023-04-21T09:26:37;101262.91;;;20.40;53.66
13367;BME280;6752;52.612;13.630;2023-04-21T09:31:40;101255.08;;;20.76;55.22
13367;BME280;6752;52.612;13.630;2023-04-21T09:36:42;101244.72;;;20.85;52.09
13367;BME280;6752;52.612;13.630;2023-04-21T09:41:44;101246.08;;;20.80;52.40
13367;BME280;6752;52.612;13.630;2023-04-21T09:46:47;101238.46;;;20.30;49.90
13367;BME280;6752;52.612;13.630;2023-04-21T09:51:49;101231.41;;;21.18;49.52
13367;BME280;6752;52.612;13.630;2023-04-21T09:56:52;101224.25;;;20.37;47.39
13367;BME280;6752;52.612;13.630;2023-04-21T10:01:54;101232.26;;;20.82;50.52
13367;BME280;6752;52.612;13.630;2023-04-21T10:18:51;101221.73;;;21.35;50.76
13367;BME280;6752;52.612;13.630;2023-04-21T10:23:53;101214.09;;;21.16;47.79
13367;BME280;6752;52.612;13.630;2023-04-21T10:29:00;101219.34;;;21.20;48.18
13367;BME280;6752;52.612;13.630;2023-04-21T10:39:09;101215.63;;;21.86;48.04
13367;BME280;6752;52.612;13.630;2023-04-21T10:44:14;101207.58;;;21.29;48.56
13367;BME280;6752;52.612;13.630;2023-04-21T10:49:29;101203.27;;;22.28;46.93
13367;BME280;6752;52.612;13.630;2023-04-21T10:59:49;101194.62;;;21.97;47.66
13367;BME280;6752;52.612;13.630;2023-04-21T11:04:52;101186.75;;;22.27;47.17
13367;BME280;6752;52.612;13.630;2023-04-21T11:09:57;101180.70;;;22.37;46.79
13367;BME280;6752;52.612;13.630;2023-04-21T11:15:01;101180.67;;;21.85;46.15
13367;BME280;6752;52.612;13.630;2023-04-21T11:20:01;101167.94;;;22.92;48.65
13367;BME280;6752;52.612;13.630;2023-04-21T11:25:03;101166.84;;;23.22;48.87
13367;BME280;6752;52.612;13.630;2023-04-21T11:30:06;101156.81;;;23.23;46.68
13367;BME280;6752;52.612;13.630;2023-04-21T11:35:08;101149.51;;;22.47;43.82
13367;BME280;6752;52.612;13.630;2023-04-21T11:40:11;101149.28;;;22.41;43.58
13367;BME280;6752;52.612;13.630;2023-04-21T11:45:19;101138.30;;;22.21;44.17
13367;BME280;6752;52.612;13.630;2023-04-21T11:50:30;101146.80;;;21.56;44.69
13367;BME280;6752;52.612;13.630;2023-04-21T11:55:33;101126.09;;;21.92;43.35
13367;BME280;6752;52.612;13.630;2023-04-21T12:00:35;101131.17;;;22.66;44.19
13367;BME280;6752;52.612;13.630;2023-04-21T12:05:37;101110.88;;;23.14;44.46
13367;BME280;6752;52.612;13.630;2023-04-21T12:10:43;101118.45;;;22.21;43.60
13367;BME280;6752;52.612;13.630;2023-04-21T12:15:43;101113.30;;;23.23;43.41
13367;BME280;6752;52.612;13.630;2023-04-21T12:20:51;101103.45;;;22.22;41.76
13367;BME280;6752;52.612;13.630;2023-04-21T12:25:53;101089.17;;;22.39;42.91
13367;BME280;6752;52.612;13.630;2023-04-21T12:30:55;101100.25;;;22.27;42.42
13367;BME280;6752;52.612;13.630;2023-04-21T12:35:58;101093.00;;;22.31;41.54
13367;BME280;6752;52.612;13.630;2023-04-21T12:41:00;101081.50;;;22.28;41.90
13367;BME280;6752;52.612;13.630;2023-04-21T12:46:02;101083.62;;;22.70;41.72
13367;BME280;6752;52.612;13.630;2023-04-21T12:51:05;101072.95;;;22.36;40.16
13367;BME280;6752;52.612;13.630;2023-04-21T12:56:07;101068.84;;;22.77;39.73
13367;BME280;6752;52.612;13.630;2023-04-21T13:01:09;101056.25;;;22.22;40.73
13367;BME280;6752;52.612;13.630;2023-04-21T13:06:12;101054.57;;;22.04;39.24
13367;BME280;6752;52.612;13.630;2023-04-21T13:11:14;101061.41;;;21.72;40.43
13367;BME280;6752;52.612;13.630;2023-04-21T13:16:16;101036.27;;;22.03;39.21
13367;BME280;6752;52.612;13.630;2023-04-21T13:21:19;101036.84;;;22.19;39.29
13367;BME280;6752;52.612;13.630;2023-04-21T13:26:21;101041.89;;;22.78;42.10
13367;BME280;6752;52.612;13.630;2023-04-21T13:31:24;101032.39;;;22.21;39.32
13367;BME280;6752;52.612;13.630;2023-04-21T13:36:26;101029.61;;;22.21;41.61
13367;BME280;6752;52.612;13.630;2023-04-21T13:41:28;101016.64;;;21.89;41.26
13367;BME280;6752;52.612;13.630;2023-04-21T13:46:31;101020.73;;;22.53;42.92
13367;BME280;6752;52.612;13.630;2023-04-21T13:51:33;101014.82;;;21.69;40.84
13367;BME280;6752;52.612;13.630;2023-04-21T13:56:35;100998.17;;;21.91;40.13
13367;BME280;6752;52.612;13.630;2023-04-21T14:01:38;100999.09;;;22.18;41.28
13367;BME280;6752;52.612;13.630;2023-04-21T14:06:40;100991.31;;;22.01;41.23
13367;BME280;6752;52.612;13.630;2023-04-21T14:11:43;100991.34;;;22.15;41.99
13367;BME280;6752;52.612;13.630;2023-04-21T14:16:45;100987.89;;;21.50;41.51
13367;BME280;6752;52.612;13.630;2023-04-21T14:21:47;100978.02;;;21.75;40.25
13367;BME280;6752;52.612;13.630;2023-04-21T14:26:50;100965.08;;;21.83;40.75
13367;BME280;6752;52.612;13.630;2023-04-21T14:31:52;100962.08;;;21.77;40.77
13367;BME280;6752;52.612;13.630;2023-04-21T14:36:55;100961.38;;;21.34;39.88
13367;BME280;6752;52.612;13.630;2023-04-21T14:41:57;100943.05;;;21.80;39.13
13367;BME280;6752;52.612;13.630;2023-04-21T14:46:59;100945.73;;;21.51;40.40
13367;BME280;6752;52.612;13.630;2023-04-21T14:52:01;100944.67;;;21.44;41.01
13367;BME280;6752;52.612;13.630;2023-04-21T14:57:04;100935.14;;;21.38;39.54
13367;BME280;6752;52.612;13.630;2023-04-21T15:02:06;100939.86;;;21.38;40.86
13367;BME280;6752;52.612;13.630;2023-04-21T15:07:08;100934.40;;;21.17;40.37
13367;BME280;6752;52.612;13.630;2023-04-21T15:12:11;100929.86;;;21.96;42.27
13367;BME280;6752;52.612;13.630;2023-04-21T15:17:20;100916.84;;;21.40;40.55
13367;BME280;6752;52.612;13.630;2023-04-21T15:22:23;100916.21;;;21.31;41.13
13367;BME280;6752;52.612;13.630;2023-04-21T15:27:25;100908.61;;;21.19;41.25
13367;BME280;6752;52.612;13.630;2023-04-21T15:32:27;100916.70;;;21.06;41.72
13367;BME280;6752;52.612;13.630;2023-04-21T15:37:30;100890.59;;;21.19;41.02
13367;BME280;6752;52.612;13.630;2023-04-21T15:42:32;100893.28;;;21.10;42.23
13367;BME280;6752;52.612;13.630;2023-04-21T15:47:34;100900.42;;;20.57;42.17
13367;BME280;6752;52.612;13.630;2023-04-21T15:52:37;100888.45;;;20.76;42.00
13367;BME280;6752;52.612;13.630;2023-04-21T15:57:39;100884.50;;;20.63;41.58
13367;BME280;6752;52.612;13.630;2023-04-21T16:02:41;100887.23;;;20.71;43.67
13367;BME280;6752;52.612;13.630;2023-04-21T16:07:44;100877.97;;;20.68;42.41
13367;BME280;6752;52.612;13.630;2023-04-21T16:12:46;100879.90;;;20.15;42.81
13367;BME280;6752;52.612;13.630;2023-04-21T16:17:48;100878.54;;;19.95;43.10
13367;BME280;6752;52.612;13.630;2023-04-21T16:22:50;100874.53;;;19.91;43.34
13367;BME280;6752;52.612;13.630;2023-04-21T16:27:52;100871.75;;;19.99;43.55
13367;BME280;6752;52.612;13.630;2023-04-21T16:32:54;100869.42;;;19.79;44.30
13367;BME280;6752;52.612;13.630;2023-04-21T16:37:56;100868.57;;;19.86;45.63
13367;BME280;6752;52.612;13.630;2023-04-21T16:42:59;100860.72;;;19.74;45.46
13367;BME280;6752;52.612;13.630;2023-04-21T16:48:01;100855.55;;;19.26;45.43
13367;BME280;6752;52.612;13.630;2023-04-21T16:53:03;100851.81;;;19.21;45.07
13367;BME280;6752;52.612;13.630;2023-04-21T16:58:05;100849.70;;;18.99;45.53
13367;BME280;6752;52.612;13.630;2023-04-21T17:03:07;100849.36;;;18.80;45.70
13367;BME280;6752;52.612;13.630;2023-04-21T17:08:09;100843.63;;;18.63;45.51
13367;BME280;6752;52.612;13.630;2023-04-21T17:13:12;100849.72;;;18.44;46.48
13367;BME280;6752;52.612;13.630;2023-04-21T17:18:14;100854.11;;;18.38;47.26
13367;BME280;6752;52.612;13.630;2023-04-21T17:23:16;100852.88;;;17.95;47.35
13367;BME280;6752;52.612;13.630;2023-04-21T17:28:19;100847.56;;;17.81;46.61
13367;BME280;6752;52.612;13.630;2023-04-21T17:33:21;100854.68;;;17.60;48.39
13367;BME280;6752;52.612;13.630;2023-04-21T17:38:24;100850.36;;;17.54;49.79
13367;BME280;6752;52.612;13.630;2023-04-21T17:43:26;100854.95;;;17.16;50.00
13367;BME280;6752;52.612;13.630;2023-04-21T17:48:27;100853.02;;;17.03;51.47
13367;BME280;6752;52.612;13.630;2023-04-21T17:53:30;100856.14;;;16.74;52.44
13367;BME280;6752;52.612;13.630;2023-04-21T17:58:32;100855.23;;;16.57;52.39
13367;BME280;6752;52.612;13.630;2023-04-21T18:03:34;100860.01;;;16.56;54.62
13367;BME280;6752;52.612;13.630;2023-04-21T18:08:37;100860.35;;;16.18;53.46
13367;BME280;6752;52.612;13.630;2023-04-21T18:13:39;100866.30;;;16.10;54.99
13367;BME280;6752;52.612;13.630;2023-04-21T18:18:41;100867.03;;;15.86;56.44
13367;BME280;6752;52.612;13.630;2023-04-21T18:23:44;100870.28;;;15.67;58.23
13367;BME280;6752;52.612;13.630;2023-04-21T18:28:46;100880.14;;;15.51;63.94
13367;BME280;6752;52.612;13.630;2023-04-21T18:33:49;100874.33;;;15.10;65.62
13367;BME280;6752;52.612;13.630;2023-04-21T18:38:51;100878.91;;;14.91;68.46
13367;BME280;6752;52.612;13.630;2023-04-21T18:43:53;100872.36;;;14.46;69.93
13367;BME280;6752;52.612;13.630;2023-04-21T18:48:56;100872.97;;;14.38;69.19
13367;BME280;6752;52.612;13.630;2023-04-21T18:53:58;100876.75;;;14.17;65.57
13367;BME280;6752;52.612;13.630;2023-04-21T18:59:00;100864.09;;;14.02;63.03
13367;BME280;6752;52.612;13.630;2023-04-21T19:04:03;100859.87;;;13.97;63.00
13367;BME280;6752;52.612;13.630;2023-04-21T19:09:05;100861.05;;;13.78;60.73
13367;BME280;6752;52.612;13.630;2023-04-21T19:14:07;100853.58;;;13.70;59.77
13367;BME280;6752;52.612;13.630;2023-04-21T19:19:10;100860.78;;;13.56;59.53
13367;BME280;6752;52.612;13.630;2023-04-21T19:24:12;100862.88;;;13.57;60.18
13367;BME280;6752;52.612;13.630;2023-04-21T19:29:15;100862.27;;;13.55;58.22
13367;BME280;6752;52.612;13.630;2023-04-21T19:34:17;100859.12;;;13.49;59.92
13367;BME280;6752;52.612;13.630;2023-04-21T19:39:19;100858.95;;;13.32;61.34
13367;BME280;6752;52.612;13.630;2023-04-21T19:44:22;100860.12;;;13.15;62.56
13367;BME280;6752;52.612;13.630;2023-04-21T19:49:24;100858.72;;;12.89;62.97
13367;BME280;6752;52.612;13.630;2023-04-21T19:54:26;100863.30;;;12.91;64.01
13367;BME280;6752;52.612;13.630;2023-04-21T19:59:29;100868.09;;;12.81;63.09
13367;BME280;6752;52.612;13.630;2023-04-21T20:04:31;100864.58;;;12.74;64.20
13367;BME280;6752;52.612;13.630;2023-04-21T20:09:33;100864.41;;;12.57;64.30
13367;BME280;6752;52.612;13.630;2023-04-21T20:14:36;100861.80;;;12.53;65.12
13367;BME280;6752;52.612;13.630;2023-04-21T20:19:38;100860.80;;;12.42;64.21
13367;BME280;6752;52.612;13.630;2023-04-21T20:24:43;100858.92;;;12.48;63.03
13367;BME280;6752;52.612;13.630;2023-04-21T20:29:46;100864.75;;;12.37;64.47
13367;BME280;6752;52.612;13.630;2023-04-21T20:34:48;100863.48;;;12.27;66.36
13367;BME280;6752;52.612;13.630;2023-04-21T20:39:50;100863.86;;;12.49;62.80
13367;BME280;6752;52.612;13.630;2023-04-21T20:44:53;100865.33;;;12.33;65.34
13367;BME280;6752;52.612;13.630;2023-04-21T20:49:55;100874.41;;;12.18;66.03
13367;BME280;6752;52.612;13.630;2023-04-21T20:54:57;100866.06;;;12.49;62.18
13367;BME280;6752;52.612;13.630;2023-04-21T21:00:00;100868.55;;;12.54;61.83
13367;BME280;6752;52.612;13.630;2023-04-21T21:05:02;100871.71;;;12.51;61.77
13367;BME280;6752;52.612;13.630;2023-04-21T21:10:04;100868.46;;;12.42;62.07
13367;BME280;6752;52.612;13.630;2023-04-21T21:15:07;100860.27;;;12.33;62.88
13367;BME280;6752;52.612;13.630;2023-04-21T21:20:09;100868.19;;;12.29;63.90
13367;BME280;6752;52.612;13.630;2023-04-21T21:25:11;100875.48;;;12.17;64.70
13367;BME280;6752;52.612;13.630;2023-04-21T21:30:13;100873.63;;;12.01;65.63
13367;BME280;6752;52.612;13.630;2023-04-21T21:35:16;100878.06;;;11.90;66.32
13367;BME280;6752;52.612;13.630;2023-04-21T21:40:18;100877.72;;;11.80;66.57
13367;BME280;6752;52.612;13.630;2023-04-21T21:45:21;100881.13;;;11.72;67.37
13367;BME280;6752;52.612;13.630;2023-04-21T21:50:23;100887.83;;;11.63;67.62
13367;BME280;6752;52.612;13.630;2023-04-21T21:55:25;100887.20;;;11.49;68.58
13367;BME280;6752;52.612;13.630;2023-04-21T22:00:28;100894.22;;;11.51;68.51
13367;BME280;6752;52.612;13.630;2023-04-21T22:05:30;100880.55;;;11.42;69.08
13367;BME280;6752;52.612;13.630;2023-04-21T22:10:32;100886.45;;;11.38;69.76
13367;BME280;6752;52.612;13.630;2023-04-21T22:15:35;100884.27;;;11.31;70.62
13367;BME280;6752;52.612;13.630;2023-04-21T22:20:37;100890.31;;;11.24;71.34
13367;BME280;6752;52.612;13.630;2023-04-21T22:25:39;100894.10;;;11.04;72.30
13367;BME280;6752;52.612;13.630;2023-04-21T22:30:42;100885.27;;;11.12;71.64
13367;BME280;6752;52.612;13.630;2023-04-21T22:35:44;100888.63;;;11.07;72.35
13367;BME280;6752;52.612;13.630;2023-04-21T22:40:46;100889.92;;;11.21;71.52
13367;BME280;6752;52.612;13.630;2023-04-21T22:45:49;100890.98;;;11.01;72.38
13367;BME280;6752;52.612;13.630;2023-04-21T22:50:51;100899.62;;;11.10;72.24
13367;BME280;6752;52.612;13.630;2023-04-21T22:55:54;100895.69;;;11.03;72.86
13367;BME280;6752;52.612;13.630;2023-04-21T23:00:56;100897.25;;;10.89;73.67
13367;BME280;6752;52.612;13.630;2023-04-21T23:05:58;100904.93;;;10.79;74.42
13367;BME280;6752;52.612;13.630;2023-04-21T23:11:01;100902.63;;;10.80;75.69
13367;BME280;6752;52.612;13.630;2023-04-21T23:16:03;100896.27;;;10.73;75.48
13367;BME280;6752;52.612;13.630;2023-04-21T23:21:05;100902.16;;;10.70;75.67
13367;BME280;6752;52.612;13.630;2023-04-21T23:26:08;100901.87;;;10.56;77.10
13367;BME280;6752;52.612;13.630;2023-04-21T23:31:10;100895.53;;;10.46;77.94
13367;BME280;6752;52.612;13.630;2023-04-21T23:36:12;100898.24;;;10.50;77.86
13367;BME280;6752;52.612;13.630;2023-04-21T23:41:15;100899.09;;;10.47;78.03
13367;BME280;6752;52.612;13.630;2023-04-21T23:46:17;100893.88;;;10.42;78.54
13367;BME280;6752;52.612;13.630;2023-04-21T23:51:20;100885.31;;;10.28;79.46
13367;BME280;6752;52.612;13.630;2023-04-21T23:56:22;100885.50;;;10.34;79.23
